createdAt,value
2019-03-01T00:00:21.628Z,0.00
2019-03-01T00:01:21.611Z,0.00
2019-03-01T00:02:21.638Z,0.00
2019-03-01T00:03:21.605Z,0.00
2019-03-01T00:04:21.581Z,0.00
2019-03-01T00:05:21.572Z,0.00
2019-03-01T00:06:21.556Z,0.00
2019-03-01T00:07:21.545Z,0.00
2019-03-01T00:08:21.550Z,0.00
2019-03-01T00:09:21.530Z,0.00
2019-03-01T00:10:21.517Z,0.00
2019-03-01T00:11:21.518Z,0.00
2019-03-01T00:12:21.495Z,0.00
2019-03-01T00:13:21.504Z,0.00
2019-03-01T00:14:21.468Z,0.00
2019-03-01T00:15:21.513Z,0.00
2019-03-01T00:16:21.451Z,0.00
2019-03-01T00:17:21.443Z,0.00
2019-03-01T00:18:21.432Z,0.00
2019-03-01T00:19:21.414Z,0.00
2019-03-01T00:20:21.401Z,0.00
2019-03-01T00:21:21.403Z,0.00
2019-03-01T00:22:21.385Z,0.00
2019-03-01T00:23:21.375Z,0.00
2019-03-01T00:24:21.366Z,0.00
2019-03-01T00:25:21.367Z,0.00
2019-03-01T00:26:21.345Z,0.00
2019-03-01T00:27:21.327Z,0.00
2019-03-01T00:28:21.319Z,0.00
2019-03-01T00:29:21.315Z,0.00
2019-03-01T00:30:21.330Z,0.00
2019-03-01T00:31:21.285Z,0.00
2019-03-01T00:32:21.273Z,0.00
2019-03-01T00:33:21.269Z,0.00
2019-03-01T00:34:21.254Z,0.00
2019-03-01T00:35:21.246Z,0.00
2019-03-01T00:36:21.241Z,0.00
2019-03-01T00:37:21.218Z,0.00
2019-03-01T00:38:21.215Z,0.00
2019-03-01T00:39:21.204Z,0.00
2019-03-01T00:40:21.194Z,0.00
2019-03-01T00:41:21.173Z,0.00
2019-03-01T00:42:21.170Z,0.00
2019-03-01T00:43:21.149Z,0.00
2019-03-01T00:44:21.139Z,0.00
2019-03-01T00:45:21.128Z,0.00
2019-03-01T00:46:21.119Z,0.00
2019-03-01T00:47:21.143Z,0.00
2019-03-01T00:48:21.105Z,0.00
2019-03-01T00:49:21.090Z,0.00
2019-03-01T00:50:21.073Z,0.00
2019-03-01T00:51:21.062Z,0.00
2019-03-01T00:52:21.057Z,0.00
2019-03-01T00:53:21.084Z,0.00
2019-03-01T00:54:21.054Z,0.00
2019-03-01T00:55:21.027Z,0.00
2019-03-01T00:56:21.014Z,0.00
2019-03-01T00:57:21.010Z,0.00
2019-03-01T00:58:20.986Z,0.00
2019-03-01T00:59:20.986Z,0.00
2019-03-01T01:00:20.966Z,0.00
2019-03-01T01:01:20.978Z,0.00
2019-03-01T01:02:20.943Z,0.00
2019-03-01T01:03:20.938Z,0.00
2019-03-01T01:04:20.926Z,0.00
2019-03-01T01:05:20.913Z,0.00
2019-03-01T01:06:20.909Z,0.00
2019-03-01T01:07:20.893Z,0.00
2019-03-01T01:08:20.876Z,0.00
2019-03-01T01:09:20.871Z,0.00
2019-03-01T01:10:20.854Z,0.00
2019-03-01T01:11:20.844Z,0.00
2019-03-01T01:12:20.845Z,0.00
2019-03-01T01:13:20.848Z,0.00
2019-03-01T01:14:20.826Z,0.00
2019-03-01T01:15:20.804Z,0.00
2019-03-01T01:16:20.787Z,0.00
2019-03-01T01:17:20.777Z,0.00
2019-03-01T01:18:20.765Z,0.00
2019-03-01T01:19:20.772Z,0.00
2019-03-01T01:20:20.748Z,0.00
2019-03-01T01:21:20.741Z,0.00
2019-03-01T01:22:20.725Z,0.00
2019-03-01T01:23:20.713Z,0.00
2019-03-01T01:24:20.699Z,0.00
2019-03-01T01:25:20.692Z,0.00
2019-03-01T01:26:20.679Z,0.00
2019-03-01T01:27:20.711Z,0.00
2019-03-01T01:28:20.655Z,0.00
2019-03-01T01:29:20.675Z,0.00
2019-03-01T01:30:20.637Z,0.00
2019-03-01T01:31:20.622Z,0.00
2019-03-01T01:32:20.615Z,0.00
2019-03-01T01:33:20.601Z,0.00
2019-03-01T01:34:20.589Z,0.00
2019-03-01T01:35:20.596Z,0.00
2019-03-01T01:36:20.576Z,0.00
2019-03-01T01:37:20.569Z,0.00
2019-03-01T01:38:20.553Z,0.00
2019-03-01T01:39:20.534Z,0.00
2019-03-01T01:40:20.526Z,0.00
2019-03-01T01:41:20.517Z,0.00
2019-03-01T01:42:20.505Z,0.00
2019-03-01T01:43:20.502Z,0.00
2019-03-01T01:44:20.488Z,0.00
2019-03-01T01:45:20.468Z,0.00
2019-03-01T01:46:20.462Z,0.00
2019-03-01T01:47:20.457Z,0.00
2019-03-01T01:48:20.448Z,0.00
2019-03-01T01:49:20.427Z,0.00
2019-03-01T01:50:20.419Z,0.00
2019-03-01T01:51:20.405Z,0.00
2019-03-01T01:52:20.425Z,0.00
2019-03-01T01:53:20.412Z,0.00
2019-03-01T01:54:20.370Z,0.00
2019-03-01T01:55:20.366Z,0.00
2019-03-01T01:56:20.356Z,0.00
2019-03-01T01:57:20.347Z,0.00
2019-03-01T01:58:20.334Z,0.00
2019-03-01T01:59:20.318Z,0.00
2019-03-01T02:00:20.325Z,0.00
2019-03-01T02:01:20.306Z,0.00
2019-03-01T02:02:20.286Z,0.00
2019-03-01T02:03:20.271Z,0.00
2019-03-01T02:04:20.259Z,0.00
2019-03-01T02:05:20.250Z,0.00
2019-03-01T02:06:20.267Z,0.00
2019-03-01T02:07:20.231Z,0.00
2019-03-01T02:08:20.221Z,0.00
2019-03-01T02:09:20.205Z,0.00
2019-03-01T02:10:20.194Z,0.00
2019-03-01T02:11:20.182Z,0.00
2019-03-01T02:12:20.188Z,0.00
2019-03-01T02:13:20.165Z,0.00
2019-03-01T02:14:20.157Z,0.00
2019-03-01T02:15:20.141Z,0.00
2019-03-01T02:16:20.128Z,0.00
2019-03-01T02:17:20.147Z,0.00
2019-03-01T02:18:20.110Z,0.00
2019-03-01T02:19:20.101Z,0.00
2019-03-01T02:20:20.092Z,0.00
2019-03-01T02:21:20.081Z,0.00
2019-03-01T02:22:20.062Z,0.00
2019-03-01T02:23:20.115Z,0.00
2019-03-01T02:24:20.048Z,0.00
2019-03-01T02:25:20.029Z,0.00
2019-03-01T02:26:20.019Z,0.00
2019-03-01T02:27:20.013Z,0.00
2019-03-01T02:28:20.004Z,0.00
2019-03-01T02:29:20.004Z,0.00
2019-03-01T02:30:19.976Z,0.00
2019-03-01T02:31:19.981Z,0.00
2019-03-01T02:32:22.609Z,0.00
2019-03-01T02:33:19.950Z,0.00
2019-03-01T02:34:19.941Z,0.00
2019-03-01T02:35:19.922Z,0.00
2019-03-01T02:36:19.924Z,0.00
2019-03-01T02:37:19.942Z,0.00
2019-03-01T02:38:19.896Z,0.00
2019-03-01T02:39:19.887Z,0.00
2019-03-01T02:40:19.867Z,0.00
2019-03-01T02:41:19.864Z,0.00
2019-03-01T02:42:19.854Z,0.00
2019-03-01T02:43:19.875Z,0.00
2019-03-01T02:44:19.822Z,0.00
2019-03-01T02:45:19.830Z,0.00
2019-03-01T02:46:19.811Z,0.00
2019-03-01T02:47:19.791Z,0.00
2019-03-01T02:48:19.785Z,0.00
2019-03-01T02:49:19.778Z,0.00
2019-03-01T02:50:19.780Z,0.00
2019-03-01T02:51:19.751Z,0.00
2019-03-01T02:52:19.765Z,0.00
2019-03-01T02:53:19.737Z,0.00
2019-03-01T02:54:19.722Z,0.00
2019-03-01T02:55:19.739Z,0.00
2019-03-01T02:56:19.690Z,0.00
2019-03-01T02:57:19.685Z,0.00
2019-03-01T02:58:19.669Z,0.00
2019-03-01T02:59:19.682Z,0.00
2019-03-01T03:00:19.699Z,0.00
2019-03-01T03:01:19.645Z,0.00
2019-03-01T03:02:19.633Z,0.00
2019-03-01T03:03:19.619Z,0.00
2019-03-01T03:04:19.639Z,0.00
2019-03-01T03:05:19.592Z,0.00
2019-03-01T03:06:19.612Z,0.00
2019-03-01T03:07:19.574Z,0.00
2019-03-01T03:08:19.563Z,0.00
2019-03-01T03:09:19.552Z,0.00
2019-03-01T03:10:19.553Z,0.00
2019-03-01T03:11:19.533Z,0.00
2019-03-01T03:12:19.521Z,0.00
2019-03-01T03:13:19.509Z,0.00
2019-03-01T03:14:19.508Z,0.00
2019-03-01T03:15:19.488Z,0.00
2019-03-01T03:16:19.479Z,0.00
2019-03-01T03:17:19.471Z,0.00
2019-03-01T03:18:19.454Z,0.00
2019-03-01T03:19:19.446Z,0.00
2019-03-01T03:20:19.437Z,0.00
2019-03-01T03:21:19.433Z,0.00
2019-03-01T03:22:19.407Z,0.00
2019-03-01T03:23:19.398Z,0.00
2019-03-01T03:24:19.393Z,0.00
2019-03-01T03:25:19.385Z,0.00
2019-03-01T03:26:19.405Z,0.00
2019-03-01T03:27:19.353Z,0.00
2019-03-01T03:28:19.384Z,0.00
2019-03-01T03:29:19.328Z,0.00
2019-03-01T03:30:19.318Z,0.00
2019-03-01T03:31:19.312Z,0.00
2019-03-01T03:32:19.312Z,0.00
2019-03-01T03:33:19.327Z,0.00
2019-03-01T03:34:19.273Z,0.00
2019-03-01T03:35:19.274Z,0.00
2019-03-01T03:36:19.256Z,0.00
2019-03-01T03:37:19.380Z,0.00
2019-03-01T03:38:19.231Z,0.00
2019-03-01T03:39:19.243Z,0.00
2019-03-01T03:40:19.206Z,0.00
2019-03-01T03:41:19.196Z,0.00
2019-03-01T03:42:19.195Z,0.00
2019-03-01T03:43:19.181Z,0.00
2019-03-01T03:44:19.170Z,0.00
2019-03-01T03:45:19.173Z,0.00
2019-03-01T03:46:19.148Z,0.00
2019-03-01T03:47:19.166Z,0.00
2019-03-01T03:48:19.124Z,0.00
2019-03-01T03:49:19.109Z,0.00
2019-03-01T03:50:19.101Z,0.00
2019-03-01T03:51:19.088Z,0.00
2019-03-01T03:52:19.075Z,0.00
2019-03-01T03:53:19.089Z,0.00
2019-03-01T03:54:19.058Z,0.00
2019-03-01T03:55:19.049Z,0.00
2019-03-01T03:56:19.038Z,0.00
2019-03-01T03:57:19.019Z,0.00
2019-03-01T03:58:19.072Z,0.00
2019-03-01T03:59:19.005Z,0.00
2019-03-01T04:00:18.989Z,0.00
2019-03-01T04:01:18.979Z,0.00
2019-03-01T04:02:18.968Z,0.00
2019-03-01T04:03:18.957Z,0.00
2019-03-01T04:04:18.992Z,0.00
2019-03-01T04:05:18.932Z,0.00
2019-03-01T04:06:18.922Z,0.00
2019-03-01T04:07:18.914Z,0.00
2019-03-01T04:08:18.913Z,0.00
2019-03-01T04:09:18.889Z,0.00
2019-03-01T04:10:18.882Z,0.00
2019-03-01T04:11:18.885Z,0.00
2019-03-01T04:12:18.860Z,0.00
2019-03-01T04:13:18.861Z,0.00
2019-03-01T04:14:18.831Z,0.00
2019-03-01T04:15:18.854Z,0.00
2019-03-01T04:16:18.811Z,0.00
2019-03-01T04:17:18.805Z,0.00
2019-03-01T04:18:18.794Z,0.00
2019-03-01T04:19:18.778Z,0.00
2019-03-01T04:20:18.790Z,0.00
2019-03-01T04:21:18.771Z,0.00
2019-03-01T04:22:18.749Z,0.00
2019-03-01T04:23:18.739Z,0.00
2019-03-01T04:24:18.729Z,0.00
2019-03-01T04:25:18.726Z,0.00
2019-03-01T04:26:18.747Z,0.00
2019-03-01T04:27:18.690Z,0.00
2019-03-01T04:28:18.678Z,0.00
2019-03-01T04:29:18.671Z,0.00
2019-03-01T04:30:18.671Z,0.00
2019-03-01T04:31:18.649Z,0.00
2019-03-01T04:32:18.674Z,0.00
2019-03-01T04:33:18.629Z,0.00
2019-03-01T04:34:18.615Z,0.00
2019-03-01T04:35:18.605Z,0.00
2019-03-01T04:36:18.605Z,0.00
2019-03-01T04:37:18.577Z,0.00
2019-03-01T04:38:18.645Z,0.00
2019-03-01T04:39:18.560Z,0.00
2019-03-01T04:40:18.551Z,0.00
2019-03-01T04:41:18.540Z,0.00
2019-03-01T04:42:18.528Z,0.00
2019-03-01T04:43:18.517Z,0.00
2019-03-01T04:44:18.533Z,0.00
2019-03-01T04:45:18.495Z,0.00
2019-03-01T04:46:18.480Z,0.00
2019-03-01T04:47:18.477Z,0.00
2019-03-01T04:48:18.458Z,0.00
2019-03-01T04:49:18.452Z,0.00
2019-03-01T04:50:18.443Z,0.00
2019-03-01T04:51:18.425Z,0.00
2019-03-01T04:52:18.418Z,0.00
2019-03-01T04:53:18.403Z,0.00
2019-03-01T04:54:18.426Z,0.00
2019-03-01T04:55:18.394Z,0.00
2019-03-01T04:56:18.374Z,0.00
2019-03-01T04:57:18.364Z,0.00
2019-03-01T04:58:18.347Z,0.00
2019-03-01T04:59:18.335Z,0.00
2019-03-01T05:00:18.349Z,0.00
2019-03-01T05:01:18.318Z,0.00
2019-03-01T05:02:18.310Z,0.00
2019-03-01T05:03:18.296Z,0.00
2019-03-01T05:04:18.284Z,0.00
2019-03-01T05:05:18.279Z,0.00
2019-03-01T05:06:18.259Z,0.00
2019-03-01T05:07:18.247Z,0.00
2019-03-01T05:08:18.238Z,0.00
2019-03-01T05:09:18.244Z,0.00
2019-03-01T05:10:18.244Z,0.00
2019-03-01T05:11:18.219Z,0.00
2019-03-01T05:12:18.198Z,0.00
2019-03-01T05:13:18.186Z,0.00
2019-03-01T05:14:18.172Z,0.00
2019-03-01T05:15:18.166Z,0.00
2019-03-01T05:16:18.167Z,0.00
2019-03-01T05:17:18.143Z,0.00
2019-03-01T05:18:18.129Z,0.00
2019-03-01T05:19:18.144Z,0.00
2019-03-01T05:20:18.145Z,0.00
2019-03-01T05:21:18.101Z,0.00
2019-03-01T05:22:18.083Z,0.00
2019-03-01T05:23:18.080Z,0.00
2019-03-01T05:24:18.061Z,0.00
2019-03-01T05:25:18.057Z,0.00
2019-03-01T05:26:18.050Z,0.00
2019-03-01T05:27:18.033Z,0.00
2019-03-01T05:28:18.023Z,0.00
2019-03-01T05:29:18.007Z,0.00
2019-03-01T05:30:18.002Z,0.00
2019-03-01T05:31:17.995Z,0.00
2019-03-01T05:32:17.986Z,0.00
2019-03-01T05:33:17.977Z,0.00
2019-03-01T05:34:17.951Z,0.00
2019-03-01T05:35:17.945Z,0.00
2019-03-01T05:36:17.936Z,0.00
2019-03-01T05:37:17.925Z,0.00
2019-03-01T05:38:21.778Z,0.00
2019-03-01T05:39:17.902Z,0.00
2019-03-01T05:40:17.900Z,0.00
2019-03-01T05:41:17.873Z,0.00
2019-03-01T05:42:17.864Z,0.00
2019-03-01T05:43:17.851Z,0.00
2019-03-01T05:44:17.869Z,0.00
2019-03-01T05:45:17.834Z,0.00
2019-03-01T05:46:17.819Z,0.00
2019-03-01T05:47:17.812Z,0.00
2019-03-01T05:48:17.803Z,0.00
2019-03-01T05:49:17.790Z,0.00
2019-03-01T05:50:17.793Z,0.00
2019-03-01T05:51:17.770Z,0.00
2019-03-01T05:52:17.756Z,0.00
2019-03-01T05:53:17.746Z,0.00
2019-03-01T05:54:17.768Z,5.62
2019-03-01T05:55:17.728Z,5.62
2019-03-01T05:56:17.712Z,5.62
2019-03-01T05:57:17.704Z,5.62
2019-03-01T05:58:17.687Z,5.62
2019-03-01T05:59:17.681Z,5.62
2019-03-01T06:00:17.672Z,11.25
2019-03-01T06:01:17.658Z,11.25
2019-03-01T06:02:17.643Z,11.25
2019-03-01T06:03:17.631Z,11.25
2019-03-01T06:04:17.620Z,11.25
2019-03-01T06:05:17.658Z,11.25
2019-03-01T06:06:17.598Z,16.88
2019-03-01T06:07:17.591Z,16.88
2019-03-01T06:08:17.581Z,16.88
2019-03-01T06:09:17.569Z,16.88
2019-03-01T06:10:17.569Z,22.50
2019-03-01T06:11:17.546Z,28.12
2019-03-01T06:12:17.538Z,28.12
2019-03-01T06:13:17.526Z,33.75
2019-03-01T06:14:17.514Z,33.75
2019-03-01T06:15:17.512Z,33.75
2019-03-01T06:16:17.488Z,33.75
2019-03-01T06:17:17.476Z,28.12
2019-03-01T06:18:17.477Z,22.50
2019-03-01T06:19:17.457Z,22.50
2019-03-01T06:20:17.459Z,28.12
2019-03-01T06:21:17.441Z,28.12
2019-03-01T06:22:17.422Z,33.75
2019-03-01T06:23:17.416Z,33.75
2019-03-01T06:24:17.404Z,39.38
2019-03-01T06:25:17.396Z,39.38
2019-03-01T06:26:17.391Z,33.75
2019-03-01T06:27:17.384Z,33.75
2019-03-01T06:28:17.362Z,33.75
2019-03-01T06:29:17.351Z,33.75
2019-03-01T06:30:17.337Z,39.38
2019-03-01T06:31:17.337Z,39.38
2019-03-01T06:32:17.329Z,39.38
2019-03-01T06:33:17.304Z,39.38
2019-03-01T06:34:17.303Z,39.38
2019-03-01T06:35:17.282Z,39.38
2019-03-01T06:36:17.266Z,39.38
2019-03-01T06:37:17.264Z,45.00
2019-03-01T06:38:17.259Z,50.62
2019-03-01T06:39:17.236Z,45.00
2019-03-01T06:40:17.227Z,45.00
2019-03-01T06:41:17.234Z,45.00
2019-03-01T06:42:17.211Z,45.00
2019-03-01T06:43:17.228Z,45.00
2019-03-01T06:44:17.183Z,45.00
2019-03-01T06:45:17.170Z,45.00
2019-03-01T06:46:17.162Z,45.00
2019-03-01T06:47:17.147Z,39.38
2019-03-01T06:48:17.140Z,39.38
2019-03-01T06:49:17.141Z,39.38
2019-03-01T06:50:17.120Z,39.38
2019-03-01T06:51:17.102Z,39.38
2019-03-01T06:52:17.090Z,33.75
2019-03-01T06:53:17.079Z,33.75
2019-03-01T06:54:17.100Z,28.12
2019-03-01T06:55:17.083Z,28.12
2019-03-01T06:56:17.050Z,28.12
2019-03-01T06:57:17.042Z,28.12
2019-03-01T06:58:17.033Z,28.12
2019-03-01T06:59:17.015Z,22.50
2019-03-01T07:00:17.025Z,22.50
2019-03-01T07:01:16.993Z,22.50
2019-03-01T07:02:16.979Z,28.12
2019-03-01T07:03:16.975Z,22.50
2019-03-01T07:04:17.030Z,22.50
2019-03-01T07:05:16.957Z,22.50
2019-03-01T07:06:16.955Z,22.50
2019-03-01T07:07:16.928Z,22.50
2019-03-01T07:08:16.917Z,22.50
2019-03-01T07:09:16.943Z,22.50
2019-03-01T07:10:16.896Z,22.50
2019-03-01T07:11:16.892Z,28.12
2019-03-01T07:12:16.874Z,28.12
2019-03-01T07:13:16.863Z,33.75
2019-03-01T07:14:16.853Z,33.75
2019-03-01T07:15:16.872Z,45.00
2019-03-01T07:16:16.825Z,45.00
2019-03-01T07:17:16.828Z,50.62
2019-03-01T07:18:16.808Z,56.25
2019-03-01T07:19:16.798Z,61.88
2019-03-01T07:20:16.780Z,61.88
2019-03-01T07:21:16.809Z,61.88
2019-03-01T07:22:16.763Z,50.62
2019-03-01T07:23:16.751Z,50.62
2019-03-01T07:24:16.831Z,50.62
2019-03-01T07:25:16.725Z,50.62
2019-03-01T07:26:16.715Z,56.25
2019-03-01T07:27:16.721Z,61.88
2019-03-01T07:28:16.692Z,61.88
2019-03-01T07:29:16.683Z,61.88
2019-03-01T07:30:16.695Z,56.25
2019-03-01T07:31:16.663Z,56.25
2019-03-01T07:32:16.662Z,50.62
2019-03-01T07:33:16.661Z,45.00
2019-03-01T07:34:16.635Z,45.00
2019-03-01T07:35:16.640Z,39.38
2019-03-01T07:36:16.609Z,45.00
2019-03-01T07:37:16.598Z,45.00
2019-03-01T07:38:16.602Z,45.00
2019-03-01T07:39:16.575Z,45.00
2019-03-01T07:40:16.566Z,45.00
2019-03-01T07:41:16.547Z,39.38
2019-03-01T07:42:16.544Z,39.38
2019-03-01T07:43:16.590Z,39.38
2019-03-01T07:44:16.521Z,39.38
2019-03-01T07:45:16.513Z,39.38
2019-03-01T07:46:16.492Z,45.00
2019-03-01T07:47:16.490Z,45.00
2019-03-01T07:48:16.477Z,50.62
2019-03-01T07:49:16.474Z,56.25
2019-03-01T07:50:16.511Z,67.50
2019-03-01T07:51:16.444Z,78.75
2019-03-01T07:52:16.429Z,73.12
2019-03-01T07:53:16.415Z,73.12
2019-03-01T07:54:16.703Z,67.50
2019-03-01T07:55:16.394Z,67.50
2019-03-01T07:56:16.402Z,67.50
2019-03-01T07:57:16.374Z,67.50
2019-03-01T07:58:16.370Z,73.12
2019-03-01T07:59:16.386Z,78.75
2019-03-01T08:00:16.346Z,73.12
2019-03-01T08:01:16.341Z,73.12
2019-03-01T08:02:16.322Z,73.12
2019-03-01T08:03:16.313Z,78.75
2019-03-01T08:04:16.307Z,84.38
2019-03-01T08:05:16.761Z,90.00
2019-03-01T08:06:16.285Z,90.00
2019-03-01T08:07:16.275Z,95.62
2019-03-01T08:08:16.262Z,95.62
2019-03-01T08:09:16.256Z,101.25
2019-03-01T08:10:20.723Z,106.88
2019-03-01T08:11:16.237Z,106.88
2019-03-01T08:12:16.209Z,106.88
2019-03-01T08:13:17.717Z,106.88
2019-03-01T08:14:16.192Z,101.25
2019-03-01T08:15:16.190Z,101.25
2019-03-01T08:16:16.681Z,95.62
2019-03-01T08:17:16.155Z,90.00
2019-03-01T08:18:16.170Z,84.38
2019-03-01T08:19:22.626Z,78.75
2019-03-01T08:20:17.135Z,73.12
2019-03-01T08:21:16.112Z,78.75
2019-03-01T08:22:16.112Z,78.75
2019-03-01T08:23:16.097Z,84.38
2019-03-01T08:24:16.083Z,95.62
2019-03-01T08:25:22.497Z,106.88
2019-03-01T08:26:17.063Z,118.12
2019-03-01T08:27:16.057Z,118.12
2019-03-01T08:28:18.526Z,118.12
2019-03-01T08:29:17.085Z,123.75
2019-03-01T08:30:16.022Z,129.38
2019-03-01T08:31:17.537Z,123.75
2019-03-01T08:32:15.997Z,118.12
2019-03-01T08:33:15.985Z,118.12
2019-03-01T08:34:17.743Z,129.38
2019-03-01T08:35:15.962Z,123.75
2019-03-01T08:36:15.948Z,118.12
2019-03-01T08:37:17.660Z,123.75
2019-03-01T08:38:15.935Z,129.38
2019-03-01T08:39:15.926Z,123.75
2019-03-01T08:40:15.910Z,118.12
2019-03-01T08:41:15.898Z,118.12
2019-03-01T08:42:15.934Z,129.38
2019-03-01T08:43:15.876Z,146.25
2019-03-01T08:44:15.864Z,163.12
2019-03-01T08:45:15.859Z,168.75
2019-03-01T08:46:15.844Z,174.38
2019-03-01T08:47:20.254Z,185.62
2019-03-01T08:48:16.860Z,185.62
2019-03-01T08:49:15.814Z,180.00
2019-03-01T08:50:15.798Z,174.38
2019-03-01T08:51:15.798Z,180.00
2019-03-01T08:52:15.773Z,180.00
2019-03-01T08:53:16.156Z,180.00
2019-03-01T08:54:15.767Z,196.88
2019-03-01T08:55:15.742Z,230.62
2019-03-01T08:56:15.738Z,253.12
2019-03-01T08:57:15.731Z,275.62
2019-03-01T08:58:15.708Z,309.38
2019-03-01T08:59:17.441Z,286.88
2019-03-01T09:00:15.692Z,253.12
2019-03-01T09:01:15.686Z,236.25
2019-03-01T09:02:15.667Z,225.00
2019-03-01T09:03:17.219Z,230.62
2019-03-01T09:04:17.581Z,253.12
2019-03-01T09:05:15.647Z,258.75
2019-03-01T09:06:15.635Z,264.38
2019-03-01T09:07:15.632Z,258.75
2019-03-01T09:08:15.614Z,241.88
2019-03-01T09:09:17.619Z,219.38
2019-03-01T09:10:16.580Z,208.12
2019-03-01T09:11:15.571Z,208.12
2019-03-01T09:12:15.591Z,213.75
2019-03-01T09:13:15.553Z,208.12
2019-03-01T09:14:15.548Z,208.12
2019-03-01T09:15:15.533Z,202.50
2019-03-01T09:16:15.516Z,196.88
2019-03-01T09:17:15.505Z,196.88
2019-03-01T09:18:15.528Z,196.88
2019-03-01T09:19:15.484Z,196.88
2019-03-01T09:20:15.477Z,191.25
2019-03-01T09:21:15.461Z,191.25
2019-03-01T09:22:15.450Z,185.62
2019-03-01T09:23:22.865Z,180.00
2019-03-01T09:24:16.457Z,180.00
2019-03-01T09:25:15.416Z,185.62
2019-03-01T09:26:16.715Z,180.00
2019-03-01T09:27:15.400Z,180.00
2019-03-01T09:28:15.411Z,185.62
2019-03-01T09:29:18.474Z,191.25
2019-03-01T09:30:15.401Z,202.50
2019-03-01T09:31:15.354Z,202.50
2019-03-01T09:32:15.366Z,202.50
2019-03-01T09:33:17.211Z,208.12
2019-03-01T09:34:16.329Z,225.00
2019-03-01T09:35:15.314Z,230.62
2019-03-01T09:36:17.833Z,230.62
2019-03-01T09:37:16.291Z,213.75
2019-03-01T09:38:15.282Z,208.12
2019-03-01T09:39:18.127Z,213.75
2019-03-01T09:40:15.266Z,219.38
2019-03-01T09:41:15.249Z,219.38
2019-03-01T09:42:15.671Z,202.50
2019-03-01T09:43:15.250Z,185.62
2019-03-01T09:44:15.224Z,180.00
2019-03-01T09:45:15.206Z,180.00
2019-03-01T09:46:15.198Z,180.00
2019-03-01T09:47:15.183Z,174.38
2019-03-01T09:48:15.175Z,168.75
2019-03-01T09:49:15.169Z,180.00
2019-03-01T09:50:15.197Z,180.00
2019-03-01T09:51:15.954Z,168.75
2019-03-01T09:52:15.131Z,157.50
2019-03-01T09:53:15.126Z,151.88
2019-03-01T09:54:15.104Z,163.12
2019-03-01T09:55:15.092Z,180.00
2019-03-01T09:56:15.092Z,191.25
2019-03-01T09:57:15.657Z,196.88
2019-03-01T09:58:15.062Z,196.88
2019-03-01T09:59:15.055Z,202.50
2019-03-01T10:00:15.046Z,202.50
2019-03-01T10:01:15.066Z,202.50
2019-03-01T10:02:15.022Z,219.38
2019-03-01T10:03:15.006Z,230.62
2019-03-01T10:04:15.009Z,230.62
2019-03-01T10:05:14.994Z,225.00
2019-03-01T10:06:14.986Z,219.38
2019-03-01T10:07:14.969Z,208.12
2019-03-01T10:08:14.955Z,191.25
2019-03-01T10:09:14.943Z,180.00
2019-03-01T10:10:14.938Z,180.00
2019-03-01T10:11:14.916Z,185.62
2019-03-01T10:12:14.913Z,196.88
2019-03-01T10:13:14.927Z,225.00
2019-03-01T10:14:14.882Z,253.12
2019-03-01T10:15:14.871Z,270.00
2019-03-01T10:16:14.862Z,286.88
2019-03-01T10:17:14.850Z,303.75
2019-03-01T10:18:14.836Z,331.88
2019-03-01T10:19:14.842Z,337.50
2019-03-01T10:20:14.820Z,343.12
2019-03-01T10:21:14.805Z,354.38
2019-03-01T10:22:14.800Z,354.38
2019-03-01T10:23:14.812Z,348.75
2019-03-01T10:24:14.785Z,348.75
2019-03-01T10:25:14.762Z,365.62
2019-03-01T10:26:14.746Z,393.75
2019-03-01T10:27:14.742Z,405.00
2019-03-01T10:28:14.724Z,405.00
2019-03-01T10:29:14.723Z,399.38
2019-03-01T10:30:14.703Z,388.12
2019-03-01T10:31:14.696Z,388.12
2019-03-01T10:32:14.689Z,382.50
2019-03-01T10:33:14.686Z,382.50
2019-03-01T10:34:14.663Z,405.00
2019-03-01T10:35:14.728Z,393.75
2019-03-01T10:36:14.636Z,382.50
2019-03-01T10:37:14.637Z,376.88
2019-03-01T10:38:14.622Z,371.25
2019-03-01T10:39:14.603Z,365.62
2019-03-01T10:40:14.607Z,365.62
2019-03-01T10:41:14.601Z,354.38
2019-03-01T10:42:14.579Z,343.12
2019-03-01T10:43:14.572Z,337.50
2019-03-01T10:44:14.555Z,326.25
2019-03-01T10:45:14.537Z,309.38
2019-03-01T10:46:14.543Z,286.88
2019-03-01T10:47:14.515Z,275.62
2019-03-01T10:48:14.502Z,275.62
2019-03-01T10:49:14.495Z,275.62
2019-03-01T10:50:14.487Z,275.62
2019-03-01T10:51:14.488Z,275.62
2019-03-01T10:52:14.465Z,275.62
2019-03-01T10:53:14.508Z,270.00
2019-03-01T10:54:14.442Z,253.12
2019-03-01T10:55:14.433Z,247.50
2019-03-01T10:56:14.450Z,247.50
2019-03-01T10:57:14.403Z,236.25
2019-03-01T10:58:14.399Z,230.62
2019-03-01T10:59:14.381Z,230.62
2019-03-01T11:00:14.375Z,230.62
2019-03-01T11:01:14.360Z,230.62
2019-03-01T11:02:14.367Z,241.88
2019-03-01T11:03:14.341Z,253.12
2019-03-01T11:04:14.339Z,253.12
2019-03-01T11:05:14.323Z,236.25
2019-03-01T11:06:14.313Z,225.00
2019-03-01T11:07:14.314Z,213.75
2019-03-01T11:08:14.290Z,196.88
2019-03-01T11:09:14.274Z,168.75
2019-03-01T11:10:14.265Z,146.25
2019-03-01T11:11:14.249Z,129.38
2019-03-01T11:12:14.253Z,118.12
2019-03-01T11:13:14.239Z,118.12
2019-03-01T11:14:14.224Z,129.38
2019-03-01T11:15:14.209Z,146.25
2019-03-01T11:16:14.202Z,151.88
2019-03-01T11:17:14.191Z,163.12
2019-03-01T11:18:14.223Z,168.75
2019-03-01T11:19:14.204Z,168.75
2019-03-01T11:20:14.147Z,168.75
2019-03-01T11:21:14.146Z,168.75
2019-03-01T11:22:14.124Z,168.75
2019-03-01T11:23:14.114Z,157.50
2019-03-01T11:24:14.119Z,157.50
2019-03-01T11:25:14.101Z,163.12
2019-03-01T11:26:14.079Z,180.00
2019-03-01T11:27:14.074Z,191.25
2019-03-01T11:28:14.107Z,208.12
2019-03-01T11:29:14.050Z,230.62
2019-03-01T11:30:14.038Z,241.88
2019-03-01T11:31:14.027Z,225.00
2019-03-01T11:32:14.012Z,185.62
2019-03-01T11:33:14.007Z,151.88
2019-03-01T11:34:13.996Z,146.25
2019-03-01T11:35:13.995Z,146.25
2019-03-01T11:36:13.983Z,151.88
2019-03-01T11:37:13.962Z,168.75
2019-03-01T11:38:13.950Z,180.00
2019-03-01T11:39:13.943Z,196.88
2019-03-01T11:40:13.940Z,202.50
2019-03-01T11:41:13.927Z,191.25
2019-03-01T11:42:13.908Z,174.38
2019-03-01T11:43:13.892Z,163.12
2019-03-01T11:44:13.891Z,151.88
2019-03-01T11:45:13.873Z,151.88
2019-03-01T11:46:13.874Z,163.12
2019-03-01T11:47:13.859Z,180.00
2019-03-01T11:48:13.842Z,196.88
2019-03-01T11:49:13.828Z,202.50
2019-03-01T11:50:13.815Z,208.12
2019-03-01T11:51:13.814Z,219.38
2019-03-01T11:52:13.798Z,225.00
2019-03-01T11:53:13.779Z,230.62
2019-03-01T11:54:13.768Z,230.62
2019-03-01T11:55:13.763Z,225.00
2019-03-01T11:56:13.801Z,230.62
2019-03-01T11:57:13.741Z,225.00
2019-03-01T11:58:13.735Z,219.38
2019-03-01T11:59:13.718Z,213.75
2019-03-01T12:00:13.710Z,213.75
2019-03-01T12:01:17.147Z,219.38
2019-03-01T12:02:13.693Z,219.38
2019-03-01T12:03:15.338Z,236.25
2019-03-01T12:04:13.687Z,253.12
2019-03-01T12:05:13.653Z,275.62
2019-03-01T12:06:13.640Z,286.88
2019-03-01T12:07:13.668Z,281.25
2019-03-01T12:08:13.623Z,292.50
2019-03-01T12:09:13.605Z,281.25
2019-03-01T12:10:13.597Z,275.62
2019-03-01T12:11:13.581Z,270.00
2019-03-01T12:12:13.574Z,281.25
2019-03-01T12:13:13.573Z,281.25
2019-03-01T12:14:13.554Z,281.25
2019-03-01T12:15:13.536Z,292.50
2019-03-01T12:16:13.573Z,298.12
2019-03-01T12:17:13.518Z,292.50
2019-03-01T12:18:13.509Z,286.88
2019-03-01T12:19:13.499Z,270.00
2019-03-01T12:20:13.487Z,241.88
2019-03-01T12:21:13.475Z,208.12
2019-03-01T12:22:17.217Z,196.88
2019-03-01T12:23:13.486Z,202.50
2019-03-01T12:24:13.440Z,208.12
2019-03-01T12:25:13.428Z,225.00
2019-03-01T12:26:13.417Z,253.12
2019-03-01T12:27:13.411Z,264.38
2019-03-01T12:28:13.401Z,281.25
2019-03-01T12:29:13.437Z,315.00
2019-03-01T12:30:13.379Z,337.50
2019-03-01T12:31:13.368Z,337.50
2019-03-01T12:32:13.351Z,315.00
2019-03-01T12:33:13.340Z,298.12
2019-03-01T12:34:13.328Z,298.12
2019-03-01T12:35:13.352Z,292.50
2019-03-01T12:36:13.309Z,298.12
2019-03-01T12:37:13.298Z,303.75
2019-03-01T12:38:13.284Z,292.50
2019-03-01T12:39:13.278Z,281.25
2019-03-01T12:40:13.304Z,264.38
2019-03-01T12:41:13.264Z,264.38
2019-03-01T12:42:13.247Z,270.00
2019-03-01T12:43:13.248Z,281.25
2019-03-01T12:44:13.225Z,292.50
2019-03-01T12:45:13.212Z,303.75
2019-03-01T12:46:13.213Z,309.38
2019-03-01T12:47:13.205Z,298.12
2019-03-01T12:48:13.173Z,281.25
2019-03-01T12:49:13.182Z,270.00
2019-03-01T12:50:13.161Z,258.75
2019-03-01T12:51:13.164Z,247.50
2019-03-01T12:52:13.137Z,241.88
2019-03-01T12:53:13.118Z,236.25
2019-03-01T12:54:13.117Z,230.62
2019-03-01T12:55:13.133Z,241.88